Cape Race, Canada
Current Conditions -  °F | °C
As of 2:00 PM on Thursday 18 Dec 2014 (Local Time) from CYYT Reporting Station
Drizzle Drizzle  
Wind Chill: 27°   Ceiling: 100
Heat Index: 37°   Visibility: 0.25mi
Dew Point: 37°   Wind: 18mph
Humidity: 100%   Direction: 150°SSE
Pressure: 29.9"   Gusts: 25mph
Location:  46.66°N, 53.09°W
Report Text: CYYT 181700Z 15016G22KT 1/4SM R11/5500FT/D R16/5000FT/N -DZ FG VV001 03/03 A2990 RMK FG8 SLP133
Loading
Personal Weather Stations






























Interactive Weather Map New forecast layout! Learn more

10-Day Weather Forecast

Advertisements
Track Severe Weather on mobile